ADDS METAR Data INFO
IDs: Format: Raw Decoded Include TAF

Data at: 0106 UTC 24 Jun 2018

KGCM 240055Z AUTO 00000KT 10SM CLR 28/19 A2980 RMK AO2
KGCM 240035Z AUTO 00000KT 10SM CLR 28/20 A2980 RMK AO2
KGCM 240015Z AUTO 00000KT 10SM CLR 28/20 A2980 RMK AO2
KGCM 232355Z AUTO 00000KT 10SM CLR 28/20 A2980 RMK AO2
KGCM 232335Z AUTO 19003KT 10SM CLR 28/19 A2980 RMK AO2
KGCM 232315Z AUTO 25003KT 10SM CLR 30/18 A2980 RMK AO2
KGCM 232255Z AUTO 26004KT 10SM CLR 31/18 A2981 RMK AO2
KGCM 232235Z AUTO 25006KT 10SM CLR 30/18 A2981 RMK AO2
KGCM 232215Z AUTO 26004KT 10SM CLR 31/17 A2982 RMK AO2
KGCM 232155Z AUTO 24006KT 10SM CLR 30/17 A2982 RMK AO2
KGCM 232135Z AUTO 27008KT 10SM CLR 30/17 A2982 RMK AO2
KGCM 232115Z AUTO 34003KT 10SM CLR 30/18 A2982 RMK AO2
KGCM 232055Z AUTO 29005KT 10SM CLR 29/19 A2982 RMK AO2
KGCM 232035Z AUTO 26010KT 10SM CLR 30/19 A2983 RMK AO2
KGCM 232015Z AUTO 27009KT 10SM CLR 28/18 A2983 RMK AO2
KGCM 231955Z AUTO 25009KT 10SM CLR 28/18 A2984 RMK AO2
KGCM 231935Z AUTO 27010G14KT 10SM CLR 28/19 A2984 RMK AO2
KGCM 231915Z AUTO 26007KT 10SM SCT038 28/19 A2984 RMK AO2
KGCM 231855Z AUTO 28009G19KT 10SM CLR 28/18 A2984 RMK AO2
KGCM 231835Z AUTO 26009KT 10SM CLR 27/18 A2985 RMK AO2
KGCM 231815Z AUTO 27009KT 10SM CLR 27/18 A2985 RMK AO2
KGCM 231755Z AUTO 26010KT 10SM CLR 27/20 A2986 RMK AO2
KGCM 231735Z AUTO 28010KT 10SM SCT026 26/20 A2986 RMK AO2
KGCM 231715Z AUTO 25009G14KT 10SM CLR 26/19 A2986 RMK AO2
KGCM 231655Z AUTO 29007KT 10SM CLR 25/20 A2985 RMK AO2
KGCM 231635Z AUTO 26010KT 10SM CLR 25/20 A2986 RMK AO2
KGCM 231615Z AUTO 24011KT 10SM CLR 23/20 A2986 RMK AO2
KGCM 231555Z AUTO 23005KT 10SM CLR 22/19 A2984 RMK AO2
KGCM 231535Z AUTO 22010KT 10SM CLR 22/19 A2985 RMK AO2
KGCM 231515Z AUTO 24005KT 10SM CLR 21/18 A2985 RMK AO2
KGCM 231455Z AUTO 18005KT 10SM CLR 21/18 A2983 RMK AO2
KGCM 231435Z AUTO 19003KT 10SM CLR 21/18 A2984 RMK AO2
KGCM 231415Z AUTO 00000KT 10SM SCT110 20/18 A2984 RMK AO2 LTG DSNT S
KGCM 231355Z AUTO 00000KT 10SM SCT070 SCT110 20/18 A2983 RMK AO2
KGCM 231335Z AUTO 12003KT 10SM CLR 20/18 A2980 RMK AO2
KGCM 231315Z AUTO 11003KT 10SM CLR 20/18 A2979 RMK AO2
KGCM 231255Z AUTO 09003KT 10SM CLR 20/18 A2980 RMK AO2
KGCM 231235Z AUTO 00000KT 10SM CLR 19/18 A2981 RMK AO2 LTG DSNT SE
KGCM 231215Z AUTO 07003KT 10SM CLR 19/17 A2979 RMK AO2
KGCM 231155Z AUTO 04003KT 10SM CLR 18/17 A2980 RMK AO2
KGCM 231135Z AUTO 36004KT 10SM CLR 18/17 A2980 RMK AO2
KGCM 231115Z AUTO 03004KT 10SM CLR 18/17 A2977 RMK AO2
KGCM 231055Z AUTO 01003KT 10SM CLR 18/17 A2977 RMK AO2 LTG DSNT SW
KGCM 231035Z AUTO 04003KT 10SM CLR 18/17 A2976 RMK AO2
KGCM 231015Z AUTO 00000KT 10SM CLR 19/18 A2974 RMK AO2
KGCM 230955Z AUTO 09004KT 10SM CLR 19/18 A2973 RMK AO2
KGCM 230935Z AUTO 00000KT 10SM CLR 19/17 A2975 RMK AO2
KGCM 230915Z AUTO 08004KT 10SM CLR 19/17 A2973 RMK AO2 LTG DSNT SE
KGCM 230855Z AUTO 09003KT 10SM CLR 19/17 A2973 RMK AO2 LTG DSNT S
KGCM 230835Z AUTO 00000KT 10SM CLR 20/17 A2973 RMK AO2
KGCM 230815Z AUTO 17007KT 10SM CLR 19/17 A2974 RMK AO2 LTG DSNT SE AND S
KGCM 230755Z AUTO 19007KT 10SM VCTS SCT055 SCT070 19/18 A2975 RMK AO2 P0004
KGCM 230735Z AUTO 13016G26KT 7SM -RA SCT055 SCT070 SCT100 19/18 A2973 RMK AO2 P0004 LTG LTG DSNT SE THRU SW
KGCM 230720Z AUTO 15008KT 10SM RA SCT120 19/18 A2983 RMK AO2 P0002 LTG LTG DSNT S
KGCM 230655Z AUTO 31004KT 10SM TSRA SCT045 SCT070 BKN100 20/18 A2988 RMK AO2 P0003 LTG DSNT SW
KGCM 230635Z AUTO 31007KT 10SM -RA SCT049 BKN090 OVC110 20/18 A2989 RMK AO2 P0002
KGCM 230615Z AUTO 33012G20KT 10SM -RA SCT050 BKN075 BKN095 22/17 A2990 RMK AO2 LTG LTG DSNT SW
KGCM 230555Z AUTO 31008KT 10SM -RA SCT050 SCT075 BKN095 22/18 A2991 RMK AO2 LTG LTG DSNT SW
KGCM 230535Z AUTO 35006KT 10SM SCT050 SCT075 BKN095 23/17 A2989 RMK AO2 LTG DSNT SW AND W
KGCM 230515Z AUTO 35008KT 10SM SCT038 SCT050 BKN070 23/18 A2989 RMK AO2 LTG DSNT SW AND W
KGCM 230455Z AUTO 35005KT 10SM BKN037 BKN050 BKN070 22/18 A2988 RMK AO2 LTG DSNT W
KGCM 230435Z AUTO 35006KT 10SM CLR 21/18 A2985 RMK AO2
KGCM 230415Z AUTO 15003KT 10SM CLR 21/18 A2981 RMK AO2
KGCM 230355Z AUTO 15004KT 10SM CLR 21/18 A2981 RMK AO2
KGCM 230335Z AUTO 00000KT 10SM CLR 21/18 A2981 RMK AO2
KGCM 230315Z AUTO 00000KT 10SM CLR 21/18 A2980 RMK AO2
KGCM 230255Z AUTO 00000KT 10SM CLR 21/18 A2980 RMK AO2
KGCM 230235Z AUTO 11003KT 10SM CLR 22/18 A2979 RMK AO2
KGCM 230215Z AUTO 14003KT 10SM CLR 23/17 A2977 RMK AO2
KGCM 230155Z AUTO 00000KT 10SM CLR 23/18 A2977 RMK AO2
KGCM 230135Z AUTO 00000KT 10SM CLR 25/18 A2976 RMK AO2
KGCM 230115Z AUTO 08003KT 10SM CLR 26/17 A2976 RMK AO2
KGCM 230055Z AUTO 10003KT 10SM CLR 27/17 A2975 RMK AO2
KGCM 230035Z AUTO 14004KT 10SM CLR 27/17 A2976 RMK AO2
KGCM 230015Z AUTO 00000KT 10SM CLR 27/16 A2976 RMK AO2
KGCM 222355Z AUTO 00000KT 10SM CLR 27/17 A2977 RMK AO2
KGCM 222335Z AUTO 00000KT 10SM CLR 28/17 A2977 RMK AO2
KGCM 222315Z AUTO 00000KT 10SM CLR 28/16 A2977 RMK AO2
KGCM 222255Z AUTO 11003KT 10SM CLR 28/17 A2976 RMK AO2
KGCM 222235Z AUTO 00000KT 10SM CLR 28/16 A2977 RMK AO2
KGCM 222215Z AUTO 00000KT 10SM CLR 28/16 A2978 RMK AO2
KGCM 222155Z AUTO 00000KT 10SM CLR 27/16 A2979 RMK AO2
KGCM 222135Z AUTO 01003KT 10SM CLR 28/17 A2980 RMK AO2
KGCM 222115Z AUTO 00000KT 10SM CLR 27/17 A2980 RMK AO2
KGCM 222055Z AUTO 30005KT 10SM CLR 27/17 A2982 RMK AO2
KGCM 222035Z AUTO 00000KT 10SM CLR 27/17 A2983 RMK AO2
KGCM 222015Z AUTO 29006KT 10SM CLR 27/17 A2985 RMK AO2
KGCM 221955Z AUTO 33007KT 10SM CLR 26/17 A2985 RMK AO2
KGCM 221935Z AUTO 02004KT 10SM CLR 26/17 A2986 RMK AO2
KGCM 221915Z AUTO 35007KT 10SM CLR 26/17 A2986 RMK AO2
KGCM 221855Z AUTO 34007KT 10SM CLR 26/17 A2988 RMK AO2
KGCM 221835Z AUTO 36005KT 10SM SCT031 26/17 A2988 RMK AO2
KGCM 221815Z AUTO 30005KT 10SM SCT031 25/17 A2989 RMK AO2
KGCM 221755Z AUTO 29006KT 10SM SCT029 25/17 A2989 RMK AO2
KGCM 221735Z AUTO 29005KT 10SM CLR 25/17 A2989 RMK AO2
KGCM 221630Z AUTO 32008KT 10SM CLR 25/17 A2991 RMK AO2
KGCM 221620Z AUTO 33006KT 10SM CLR 24/17 A2991 RMK AO2
KGCM 221555Z AUTO 32007KT 10SM SCT023 23/17 A2991 RMK AO2
KGCM 221535Z AUTO 30007KT 10SM SCT021 23/17 A2990 RMK AO2
KGCM 221515Z AUTO 32006KT 10SM SCT021 22/17 A2990 RMK AO2
KGCM 221455Z AUTO 28006KT 10SM BKN021 22/17 A2991 RMK AO2
KGCM 221435Z AUTO 31006KT 10SM CLR 22/17 A2991 RMK AO2
KGCM 221415Z AUTO 01006KT 10SM CLR 22/17 A2989 RMK AO2
KGCM 221355Z AUTO 35006KT 10SM CLR 21/16 A2988 RMK AO2
KGCM 221335Z AUTO 33006KT 10SM CLR 21/17 A2988 RMK AO2
KGCM 221315Z AUTO 33006KT 10SM CLR 21/16 A2989 RMK AO2